Time;durP1;ratioP1;P1;durP2;ratioP2;P2;SDS_P1;SDS_P2;PMS_P1;PMS_P2;Temp;Humidity;BMP_temperature;BMP_pressure;BME280_temperature;BME280_humidity;BME280_pressure;Samples;Min_cycle;Max_cycle;Signal;HPM_P1;HPM_P2
2023/12/19 00:01:46;;;;;;;;;;;2.40;99.90;;;;;;5040063;28;19916;-91
2023/12/19 00:04:13;;;;;;;;;;;2.40;99.90;;;;;;5033231;28;19932;-95
2023/12/19 00:06:38;;;;;;;;;;;2.40;99.90;;;;;;5038573;28;19972;-90
2023/12/19 00:09:04;;;;;;;;;;;2.50;99.90;;;;;;5046071;28;19928;-88
2023/12/19 00:11:30;;;;;;;;;;;2.50;99.90;;;;;;5028490;28;19913;-89
2023/12/19 00:13:55;;;;;;;;;;;2.50;99.90;;;;;;5032045;28;19995;-89
2023/12/19 00:16:21;;;;;;;;;;;2.50;99.90;;;;;;5046273;28;20340;-88
2023/12/19 00:18:46;;;;;;;;;;;2.50;99.90;;;;;;5046824;28;19917;-88
2023/12/19 00:21:12;;;;;;;;;;;2.40;99.90;;;;;;5029546;28;19908;-87
2023/12/19 00:23:37;;;;;;;;;;;2.40;99.90;;;;;;5051393;28;19912;-91
2023/12/19 00:26:05;;;;;;;;;;;2.50;99.90;;;;;;5036494;28;19978;-91
2023/12/19 00:28:31;;;;;;;;;;;2.50;99.90;;;;;;5051722;28;19920;-91
2023/12/19 00:30:57;;;;;;;;;;;2.50;99.90;;;;;;5032663;28;19921;-91
2023/12/19 00:33:23;;;;;;;;;;;2.50;99.90;;;;;;5051466;28;19920;-94
2023/12/19 00:35:48;;;;;;;;;;;2.50;99.90;;;;;;5066979;28;19951;-92
2023/12/19 00:38:14;;;;;;;;;;;2.50;99.90;;;;;;5030814;28;19916;-88
2023/12/19 00:40:39;;;;;;;;;;;2.40;99.90;;;;;;5048145;28;19909;-90
2023/12/19 00:43:05;;;;;;;;;;;2.50;99.90;;;;;;5030702;28;19913;-87
2023/12/19 00:45:30;;;;;;;;;;;2.50;99.90;;;;;;5048175;28;20013;-90
2023/12/19 00:47:56;;;;;;;;;;;2.40;99.90;;;;;;5063855;28;19963;-90
2023/12/19 00:50:22;;;;;;;;;;;2.40;99.90;;;;;;5052311;28;20085;-90
2023/12/19 00:52:47;;;;;;;;;;;2.30;99.90;;;;;;5035450;28;20035;-90
2023/12/19 00:55:13;;;;;;;;;;;2.30;99.90;;;;;;5036310;28;20489;-91
2023/12/19 00:57:38;;;;;;;;;;;2.30;99.90;;;;;;5036538;28;19912;-92
2023/12/19 01:00:04;;;;;;;;;;;2.20;99.90;;;;;;5034932;28;19958;-93
2023/12/19 01:02:33;;;;;;;;;;;2.00;99.90;;;;;;5020840;28;19928;-91
2023/12/19 01:04:58;;;;;;;;;;;1.90;99.90;;;;;;5052701;28;19912;-90
2023/12/19 01:07:24;;;;;;;;;;;1.90;99.90;;;;;;5036238;28;20335;-90
2023/12/19 01:09:50;;;;;;;;;;;1.90;99.90;;;;;;5045436;28;19915;-89
2023/12/19 01:12:15;;;;;;;;;;;2.00;99.90;;;;;;5050454;28;20372;-91
2023/12/19 01:14:41;;;;;;;;;;;1.80;99.90;;;;;;5049192;28;20368;-89
2023/12/19 01:17:07;;;;;;;;;;;1.80;99.90;;;;;;5035899;28;19915;-87
2023/12/19 01:19:33;;;;;;;;;;;1.70;99.90;;;;;;5031245;28;19916;-88
2023/12/19 01:21:58;;;;;;;;;;;1.70;99.90;;;;;;5050182;28;20399;-88
2023/12/19 01:24:24;;;;;;;;;;;1.70;99.90;;;;;;5033313;28;20471;-90
2023/12/19 01:26:51;;;;;;;;;;;1.70;99.90;;;;;;5036171;28;19920;-93
2023/12/19 01:29:17;;;;;;;;;;;1.60;99.90;;;;;;5045473;28;20411;-93
2023/12/19 01:31:43;;;;;;;;;;;1.60;99.90;;;;;;5050138;28;19925;-89
2023/12/19 01:34:09;;;;;;;;;;;1.60;99.90;;;;;;5052300;28;19913;-89
2023/12/19 01:36:34;;;;;;;;;;;1.50;99.90;;;;;;5031428;28;20007;-88
2023/12/19 01:39:00;;;;;;;;;;;1.60;99.90;;;;;;5032013;28;20398;-89
2023/12/19 01:41:25;;;;;;;;;;;1.50;99.90;;;;;;5050335;28;19909;-88
2023/12/19 01:43:56;;;;;;;;;;;1.50;99.90;;;;;;5035268;28;19919;-89
2023/12/19 01:46:22;;;;;;;;;;;1.50;99.90;;;;;;5032359;28;19919;-87
2023/12/19 01:48:47;;;;;;;;;;;1.40;99.90;;;;;;5064434;28;19924;-87
2023/12/19 01:51:13;;;;;;;;;;;1.40;99.90;;;;;;5048984;28;19916;-86
2023/12/19 01:53:40;;;;;;;;;;;1.40;99.90;;;;;;5048383;28;19912;-86
2023/12/19 01:56:05;;;;;;;;;;;1.40;99.90;;;;;;5048639;28;19920;-86
2023/12/19 01:58:33;;;;;;;;;;;1.30;99.90;;;;;;5048627;28;19913;-87
2023/12/19 02:00:58;;;;;;;;;;;1.30;99.90;;;;;;5047385;28;19919;-86
2023/12/19 02:03:24;;;;;;;;;;;1.30;99.90;;;;;;5044035;28;19913;-86
2023/12/19 02:05:50;;;;;;;;;;;1.30;99.90;;;;;;5032045;28;20470;-86
2023/12/19 02:08:15;;;;;;;;;;;1.30;99.90;;;;;;5030977;28;20000;-86
2023/12/19 02:10:41;;;;;;;;;;;1.30;99.90;;;;;;5032556;28;19973;-85
2023/12/19 02:13:07;;;;;;;;;;;1.20;99.90;;;;;;5048512;28;19912;-85
2023/12/19 02:15:33;;;;;;;;;;;1.20;99.90;;;;;;5032644;28;19916;-85
2023/12/19 02:18:12;;;;;;;;;;;1.30;99.90;;;;;;5048705;28;19913;-85
2023/12/19 02:20:37;;;;;;;;;;;1.40;99.90;;;;;;5033336;28;19994;-86
2023/12/19 02:23:03;;;;;;;;;;;1.50;99.90;;;;;;5029815;28;19916;-87
2023/12/19 02:25:28;;;;;;;;;;;1.50;99.90;;;;;;5030804;28;19912;-87
2023/12/19 02:27:55;;;;;;;;;;;1.50;99.90;;;;;;5048622;28;19974;-89
2023/12/19 02:30:20;;;;;;;;;;;1.50;99.90;;;;;;5048581;28;19947;-88
2023/12/19 02:32:47;;;;;;;;;;;1.40;99.90;;;;;;5040425;28;19944;-88
2023/12/19 02:35:13;;;;;;;;;;;1.50;99.90;;;;;;5048321;28;19927;-88
2023/12/19 02:37:38;;;;;;;;;;;1.40;99.90;;;;;;5030649;28;19912;-89
2023/12/19 02:40:04;;;;;;;;;;;1.40;99.90;;;;;;5030104;28;20528;-87
2023/12/19 02:42:29;;;;;;;;;;;1.40;99.90;;;;;;5030180;28;19913;-87
2023/12/19 02:44:55;;;;;;;;;;;1.40;99.90;;;;;;5029948;28;19962;-88
2023/12/19 02:47:21;;;;;;;;;;;1.30;99.90;;;;;;5028717;28;19924;-87
2023/12/19 02:49:46;;;;;;;;;;;1.40;99.90;;;;;;5047674;28;19916;-89
2023/12/19 02:52:12;;;;;;;;;;;1.40;99.90;;;;;;5049736;28;19917;-89
2023/12/19 02:54:37;;;;;;;;;;;1.50;99.90;;;;;;5049931;28;19913;-88
2023/12/19 02:57:03;;;;;;;;;;;1.40;99.90;;;;;;5035146;28;19971;-88
2023/12/19 02:59:28;;;;;;;;;;;1.40;99.90;;;;;;5031018;28;20107;-89
2023/12/19 03:01:54;;;;;;;;;;;1.40;99.90;;;;;;5052793;28;19919;-92
2023/12/19 03:04:19;;;;;;;;;;;1.40;99.90;;;;;;5052801;28;20125;-93
2023/12/19 03:06:45;;;;;;;;;;;1.30;99.90;;;;;;5036694;28;19987;-93
2023/12/19 03:09:11;;;;;;;;;;;1.30;99.90;;;;;;5033611;28;19921;-92
2023/12/19 03:11:38;;;;;;;;;;;1.30;99.90;;;;;;5034735;28;19912;-88
2023/12/19 03:14:03;;;;;;;;;;;1.30;99.90;;;;;;5029542;28;19952;-87
2023/12/19 03:16:29;;;;;;;;;;;1.30;99.90;;;;;;5029602;28;19956;-88
2023/12/19 03:18:54;;;;;;;;;;;1.20;99.90;;;;;;5047619;28;19909;-86
2023/12/19 03:21:20;;;;;;;;;;;1.30;99.90;;;;;;5046811;28;19912;-87
2023/12/19 03:23:46;;;;;;;;;;;1.30;99.90;;;;;;5031439;28;19913;-90
2023/12/19 03:26:11;;;;;;;;;;;1.20;99.90;;;;;;5032657;28;19995;-89
2023/12/19 03:28:37;;;;;;;;;;;1.20;99.90;;;;;;5048956;28;20007;-89
2023/12/19 03:31:03;;;;;;;;;;;1.10;99.90;;;;;;5028166;28;19939;-90
2023/12/19 03:33:29;;;;;;;;;;;1.20;99.90;;;;;;5030058;28;20020;-92
2023/12/19 03:35:55;;;;;;;;;;;1.30;99.90;;;;;;5029592;28;19959;-91
2023/12/19 03:38:21;;;;;;;;;;;1.30;99.90;;;;;;5029962;28;19913;-91
2023/12/19 03:40:46;;;;;;;;;;;1.20;99.90;;;;;;5027008;28;19913;-87
2023/12/19 03:43:12;;;;;;;;;;;1.20;99.90;;;;;;5025882;28;20470;-87
2023/12/19 03:45:38;;;;;;;;;;;1.20;99.90;;;;;;5025486;28;20385;-91
2023/12/19 03:48:03;;;;;;;;;;;1.40;99.90;;;;;;5027758;28;19928;-89
2023/12/19 03:50:29;;;;;;;;;;;1.40;99.90;;;;;;5027729;28;20568;-87
2023/12/19 03:52:54;;;;;;;;;;;1.40;99.90;;;;;;5058861;28;20393;-88
2023/12/19 03:55:20;;;;;;;;;;;1.30;99.90;;;;;;5026512;28;19924;-88
2023/12/19 03:57:45;;;;;;;;;;;1.30;99.90;;;;;;5025658;28;20652;-88
2023/12/19 04:00:11;;;;;;;;;;;1.50;99.90;;;;;;5025836;28;19917;-88
2023/12/19 04:02:37;;;;;;;;;;;1.40;99.90;;;;;;5026848;28;19913;-89
2023/12/19 04:05:02;;;;;;;;;;;1.60;99.90;;;;;;5022926;28;20293;-89
2023/12/19 04:07:28;;;;;;;;;;;1.60;99.90;;;;;;5027785;28;19921;-93
2023/12/19 04:09:55;;;;;;;;;;;1.50;99.90;;;;;;5031380;28;20304;-94
2023/12/19 04:12:20;;;;;;;;;;;1.60;99.90;;;;;;5032343;28;20004;-89
2023/12/19 04:14:46;;;;;;;;;;;1.60;99.90;;;;;;5027869;28;19999;-89
2023/12/19 04:17:11;;;;;;;;;;;1.60;99.90;;;;;;5029751;28;20006;-89
2023/12/19 04:19:39;;;;;;;;;;;1.70;99.90;;;;;;5027695;28;19952;-89
2023/12/19 04:22:04;;;;;;;;;;;1.70;99.90;;;;;;5027881;28;19991;-90
2023/12/19 04:24:30;;;;;;;;;;;1.80;99.90;;;;;;5030586;28;19956;-94
2023/12/19 04:26:55;;;;;;;;;;;1.70;99.90;;;;;;5036997;28;20632;-95
2023/12/19 04:29:21;;;;;;;;;;;1.70;99.90;;;;;;5036430;28;19928;-95
2023/12/19 04:31:46;;;;;;;;;;;1.70;99.90;;;;;;5021935;28;19925;-96
2023/12/19 04:34:12;;;;;;;;;;;1.70;99.90;;;;;;5017551;28;19909;-92
2023/12/19 04:36:38;;;;;;;;;;;1.20;99.90;;;;;;5045724;28;20335;-92
2023/12/19 04:39:03;;;;;;;;;;;0.90;99.90;;;;;;5010157;28;19917;-91
2023/12/19 04:41:29;;;;;;;;;;;0.90;99.90;;;;;;5014837;28;19920;-95
2023/12/19 04:43:54;;;;;;;;;;;0.90;99.90;;;;;;5016108;28;19910;-93
2023/12/19 04:46:20;;;;;;;;;;;1.20;99.90;;;;;;5013791;28;19920;-89
2023/12/19 04:48:45;;;;;;;;;;;1.10;99.90;;;;;;5011058;28;19918;-88
2023/12/19 04:51:22;;;;;;;;;;;1.10;99.90;;;;;;5010177;28;19917;-87
2023/12/19 04:53:48;;;;;;;;;;;1.10;99.90;;;;;;5025338;28;19913;-89
2023/12/19 04:56:13;;;;;;;;;;;1.20;99.90;;;;;;5010310;28;19918;-89
2023/12/19 04:58:39;;;;;;;;;;;1.00;99.90;;;;;;5008792;28;20440;-88
2023/12/19 05:01:05;;;;;;;;;;;0.80;99.90;;;;;;5008273;28;19924;-87
2023/12/19 05:03:30;;;;;;;;;;;0.80;99.90;;;;;;5010166;28;19989;-88
2023/12/19 05:05:56;;;;;;;;;;;0.80;99.90;;;;;;5010469;28;20566;-89
2023/12/19 05:08:21;;;;;;;;;;;0.70;99.90;;;;;;5010538;28;19975;-88
2023/12/19 05:10:47;;;;;;;;;;;0.90;99.90;;;;;;5009469;28;19914;-88
2023/12/19 05:13:13;;;;;;;;;;;0.80;99.90;;;;;;5010366;28;19917;-88
2023/12/19 05:15:39;;;;;;;;;;;0.60;99.90;;;;;;5009638;28;20033;-87
2023/12/19 05:18:04;;;;;;;;;;;0.60;99.90;;;;;;5009282;28;19981;-88
2023/12/19 05:20:30;;;;;;;;;;;0.50;99.90;;;;;;5011426;28;20491;-91
2023/12/19 05:22:55;;;;;;;;;;;0.90;99.90;;;;;;5011065;28;20303;-93
2023/12/19 05:25:21;;;;;;;;;;;0.80;99.90;;;;;;5012074;28;19914;-90
2023/12/19 05:27:46;;;;;;;;;;;0.50;99.90;;;;;;5013736;28;19917;-92
2023/12/19 05:30:12;;;;;;;;;;;0.50;99.90;;;;;;5019509;28;20007;-94
2023/12/19 05:32:38;;;;;;;;;;;0.40;99.90;;;;;;5034460;28;19916;-89
2023/12/19 05:35:04;;;;;;;;;;;0.70;99.90;;;;;;5035426;28;19919;-88
2023/12/19 05:37:30;;;;;;;;;;;0.90;99.90;;;;;;5049820;28;19908;-90
2023/12/19 05:39:55;;;;;;;;;;;0.80;99.90;;;;;;5032209;28;19909;-89
2023/12/19 05:42:21;;;;;;;;;;;0.90;99.90;;;;;;5051174;28;20000;-93
2023/12/19 05:44:46;;;;;;;;;;;1.00;99.90;;;;;;5032702;28;19999;-90
2023/12/19 05:47:12;;;;;;;;;;;0.80;99.90;;;;;;5036066;28;19920;-95
2023/12/19 05:49:37;;;;;;;;;;;0.80;99.90;;;;;;5041934;28;20019;-92
2023/12/19 05:52:03;;;;;;;;;;;0.80;99.90;;;;;;5039234;28;19916;-87
2023/12/19 05:54:29;;;;;;;;;;;0.80;99.90;;;;;;5056052;28;19913;-95
2023/12/19 05:56:55;;;;;;;;;;;0.80;99.90;;;;;;5059451;28;19913;-93
2023/12/19 05:59:31;;;;;;;;;;;1.00;99.90;;;;;;5045609;28;20441;-96
2023/12/19 06:01:57;;;;;;;;;;;1.10;99.90;;;;;;5037051;28;19954;-90
2023/12/19 06:04:23;;;;;;;;;;;1.10;99.90;;;;;;5033797;28;19920;-89
2023/12/19 06:06:48;;;;;;;;;;;1.20;99.90;;;;;;5047883;28;19913;-86
2023/12/19 06:09:14;;;;;;;;;;;1.10;99.90;;;;;;5047771;28;19946;-87
2023/12/19 06:11:39;;;;;;;;;;;1.10;99.90;;;;;;5030918;28;20411;-86
2023/12/19 06:14:06;;;;;;;;;;;1.00;99.90;;;;;;5047645;28;19912;-88
2023/12/19 06:16:32;;;;;;;;;;;1.20;99.90;;;;;;5030103;28;19912;-87
2023/12/19 06:18:58;;;;;;;;;;;1.30;99.90;;;;;;5042988;28;19951;-87
2023/12/19 06:21:23;;;;;;;;;;;1.30;99.90;;;;;;5037044;28;19917;-88
2023/12/19 06:23:49;;;;;;;;;;;1.10;99.90;;;;;;5031403;28;19913;-85
2023/12/19 06:26:14;;;;;;;;;;;1.40;99.90;;;;;;5035129;28;20419;-86
2023/12/19 06:28:40;;;;;;;;;;;1.30;99.90;;;;;;5047790;28;19924;-83
2023/12/19 06:31:06;;;;;;;;;;;1.40;99.90;;;;;;5044816;28;19921;-85
2023/12/19 06:33:31;;;;;;;;;;;1.50;99.90;;;;;;5031096;28;19947;-84
2023/12/19 06:35:57;;;;;;;;;;;1.50;99.90;;;;;;5062817;28;19913;-86
2023/12/19 06:38:22;;;;;;;;;;;1.40;99.90;;;;;;5033280;28;19984;-90
2023/12/19 06:40:48;;;;;;;;;;;1.40;99.90;;;;;;5040214;28;20038;-92
2023/12/19 06:43:14;;;;;;;;;;;1.20;99.90;;;;;;5051739;28;20609;-88
2023/12/19 06:45:39;;;;;;;;;;;1.20;99.90;;;;;;5049191;28;19916;-92
2023/12/19 06:48:05;;;;;;;;;;;1.20;99.90;;;;;;5048766;28;19912;-91
2023/12/19 06:50:30;;;;;;;;;;;1.10;99.90;;;;;;5039379;28;19991;-85
2023/12/19 06:52:56;;;;;;;;;;;1.20;99.90;;;;;;5046884;28;20623;-87
2023/12/19 06:55:22;;;;;;;;;;;1.30;99.90;;;;;;5046202;28;19924;-91
2023/12/19 06:57:47;;;;;;;;;;;1.20;99.90;;;;;;5030383;28;19913;-87
2023/12/19 07:00:13;;;;;;;;;;;1.30;99.90;;;;;;5029542;28;19917;-86
2023/12/19 07:02:39;;;;;;;;;;;1.20;99.90;;;;;;5029371;28;19908;-85
2023/12/19 07:05:05;;;;;;;;;;;1.00;99.90;;;;;;5047701;28;19925;-87
2023/12/19 07:07:31;;;;;;;;;;;1.00;99.90;;;;;;5030548;28;19980;-87
2023/12/19 07:09:56;;;;;;;;;;;1.10;99.90;;;;;;5030496;28;19944;-86
2023/12/19 07:12:22;;;;;;;;;;;0.90;99.90;;;;;;5048362;28;19923;-84
2023/12/19 07:14:47;;;;;;;;;;;1.10;99.90;;;;;;5047666;28;19912;-83
2023/12/19 07:17:13;;;;;;;;;;;1.10;99.90;;;;;;5047368;28;19948;-83
2023/12/19 07:19:40;;;;;;;;;;;1.20;99.90;;;;;;5034236;28;19912;-85
2023/12/19 07:22:06;;;;;;;;;;;1.10;99.90;;;;;;5023294;28;19917;-87
2023/12/19 07:24:32;;;;;;;;;;;1.20;99.90;;;;;;5023944;28;19913;-84
2023/12/19 07:26:58;;;;;;;;;;;1.20;99.90;;;;;;5031309;28;19987;-83
2023/12/19 07:29:23;;;;;;;;;;;1.20;99.90;;;;;;5047118;28;19920;-81
2023/12/19 07:31:49;;;;;;;;;;;1.30;99.90;;;;;;5046240;28;19924;-84
2023/12/19 07:34:15;;;;;;;;;;;1.40;99.90;;;;;;5039317;28;19916;-92
2023/12/19 07:36:41;;;;;;;;;;;1.40;99.90;;;;;;5035142;28;19982;-93
2023/12/19 07:39:07;;;;;;;;;;;1.40;99.90;;;;;;5035013;28;19995;-92
2023/12/19 07:41:33;;;;;;;;;;;1.40;99.90;;;;;;5045623;28;19915;-93
2023/12/19 07:43:58;;;;;;;;;;;1.50;99.90;;;;;;5035490;28;19917;-93
2023/12/19 07:46:24;;;;;;;;;;;1.50;99.90;;;;;;5035683;28;20497;-93
2023/12/19 07:48:50;;;;;;;;;;;1.40;99.90;;;;;;5049081;28;19958;-90
2023/12/19 07:51:16;;;;;;;;;;;1.30;99.90;;;;;;5039934;28;19944;-91
2023/12/19 07:53:42;;;;;;;;;;;1.40;99.90;;;;;;5052292;28;19909;-90
2023/12/19 07:56:08;;;;;;;;;;;1.40;99.90;;;;;;5052534;28;20571;-90
2023/12/19 07:58:33;;;;;;;;;;;1.40;99.90;;;;;;5035754;28;20763;-90
2023/12/19 08:00:59;;;;;;;;;;;1.50;99.90;;;;;;5039138;28;19909;-93
2023/12/19 08:03:25;;;;;;;;;;;1.40;99.90;;;;;;5033400;28;19908;-91
2023/12/19 08:05:50;;;;;;;;;;;1.40;99.90;;;;;;5040275;28;19980;-92
2023/12/19 08:08:17;;;;;;;;;;;1.30;99.90;;;;;;5034621;28;20300;-91
2023/12/19 08:10:44;;;;;;;;;;;1.20;99.90;;;;;;5027246;28;19908;-92
2023/12/19 08:13:10;;;;;;;;;;;1.30;99.90;;;;;;5041127;28;19917;-93
2023/12/19 08:15:35;;;;;;;;;;;1.40;99.90;;;;;;5035536;28;19909;-91
2023/12/19 08:18:01;;;;;;;;;;;1.40;99.90;;;;;;5034034;28;19916;-91
2023/12/19 08:20:26;;;;;;;;;;;1.40;99.90;;;;;;5034697;28;19909;-93
2023/12/19 08:22:52;;;;;;;;;;;1.50;99.90;;;;;;5037661;28;19936;-92
2023/12/19 08:25:18;;;;;;;;;;;1.50;99.90;;;;;;5035137;28;20641;-93
2023/12/19 08:27:44;;;;;;;;;;;1.50;99.90;;;;;;5032267;28;19923;-92
2023/12/19 08:30:10;;;;;;;;;;;1.50;99.90;;;;;;5037761;28;19996;-92
2023/12/19 08:32:36;;;;;;;;;;;1.60;99.90;;;;;;5035321;28;19959;-92
2023/12/19 08:35:01;;;;;;;;;;;1.80;99.90;;;;;;5034362;28;19909;-92
2023/12/19 08:37:27;;;;;;;;;;;1.70;99.90;;;;;;5034436;28;19909;-93
2023/12/19 08:39:57;;;;;;;;;;;1.80;99.90;;;;;;5035095;28;20430;-92
2023/12/19 08:42:23;;;;;;;;;;;1.80;99.90;;;;;;5030306;28;19909;-92
2023/12/19 08:44:49;;;;;;;;;;;1.60;99.90;;;;;;5033870;28;19972;-91
2023/12/19 08:47:14;;;;;;;;;;;1.50;99.90;;;;;;5034684;28;19908;-91
2023/12/19 08:49:43;;;;;;;;;;;1.30;99.90;;;;;;5034367;28;19905;-91
2023/12/19 08:52:12;;;;;;;;;;;1.20;99.90;;;;;;5037171;28;19908;-90
2023/12/19 08:54:38;;;;;;;;;;;1.20;99.90;;;;;;5033597;28;19908;-91
2023/12/19 08:57:04;;;;;;;;;;;1.20;99.90;;;;;;5049728;28;19913;-91
2023/12/19 08:59:30;;;;;;;;;;;1.20;99.90;;;;;;5033642;28;19905;-91
2023/12/19 09:01:55;;;;;;;;;;;1.00;99.90;;;;;;5032967;28;19988;-91
2023/12/19 09:04:21;;;;;;;;;;;1.10;99.90;;;;;;5032541;28;20615;-91
2023/12/19 09:06:47;;;;;;;;;;;1.10;99.90;;;;;;5046217;28;20463;-90
2023/12/19 09:09:13;;;;;;;;;;;1.30;99.90;;;;;;5032196;28;19955;-90
2023/12/19 09:11:39;;;;;;;;;;;1.50;99.90;;;;;;5038871;28;19913;-91
2023/12/19 09:14:05;;;;;;;;;;;1.60;99.90;;;;;;5032552;28;20584;-89
2023/12/19 09:16:31;;;;;;;;;;;1.30;99.90;;;;;;5032555;28;19909;-90
2023/12/19 09:18:56;;;;;;;;;;;1.40;99.90;;;;;;5034638;28;20316;-90
2023/12/19 09:21:23;;;;;;;;;;;1.60;99.90;;;;;;5038444;28;19909;-90
2023/12/19 09:23:48;;;;;;;;;;;1.40;99.90;;;;;;5034924;28;20022;-90
2023/12/19 09:26:14;;;;;;;;;;;1.30;99.90;;;;;;5034885;28;19980;-91
2023/12/19 09:28:40;;;;;;;;;;;1.30;99.90;;;;;;5031645;28;20490;-89
2023/12/19 09:31:07;;;;;;;;;;;1.50;99.90;;;;;;5066628;28;19917;-91
2023/12/19 09:33:34;;;;;;;;;;;1.50;99.90;;;;;;5069665;28;19908;-90
2023/12/19 09:36:00;;;;;;;;;;;1.50;99.90;;;;;;5033476;28;20443;-90
2023/12/19 09:38:26;;;;;;;;;;;1.50;99.90;;;;;;5035179;28;19905;-91
2023/12/19 09:40:51;;;;;;;;;;;1.50;99.90;;;;;;5052577;28;20004;-91
2023/12/19 09:43:17;;;;;;;;;;;1.40;99.90;;;;;;5035199;28;19956;-91
2023/12/19 09:45:43;;;;;;;;;;;1.50;99.90;;;;;;5036262;28;20405;-90
2023/12/19 09:48:11;;;;;;;;;;;1.40;99.90;;;;;;5036567;28;19912;-91
2023/12/19 09:50:42;;;;;;;;;;;1.40;99.90;;;;;;5035275;28;19912;-92
2023/12/19 09:53:09;;;;;;;;;;;1.30;99.90;;;;;;5039831;28;19908;-91
2023/12/19 09:55:42;;;;;;;;;;;1.30;99.90;;;;;;5035681;28;19912;-92
2023/12/19 09:58:08;;;;;;;;;;;1.10;99.90;;;;;;5036209;28;19908;-91
2023/12/19 10:00:36;;;;;;;;;;;1.10;99.90;;;;;;5036381;28;19913;-91
2023/12/19 10:03:03;;;;;;;;;;;1.10;99.90;;;;;;5035844;28;20319;-90
2023/12/19 10:05:29;;;;;;;;;;;1.40;99.90;;;;;;5042389;28;19939;-89
2023/12/19 10:07:58;;;;;;;;;;;1.10;99.90;;;;;;5037058;28;19908;-92
2023/12/19 10:10:50;;;;;;;;;;;1.10;99.90;;;;;;5037405;28;19912;-93
2023/12/19 10:13:29;;;;;;;;;;;1.50;99.90;;;;;;5050640;28;19905;-92
2023/12/19 10:15:59;;;;;;;;;;;1.70;99.90;;;;;;5034908;28;19904;-91
2023/12/19 10:18:25;;;;;;;;;;;1.60;99.90;;;;;;5037128;28;20379;-92
2023/12/19 10:21:02;;;;;;;;;;;1.50;99.90;;;;;;5036382;28;19931;-92
2023/12/19 10:23:27;;;;;;;;;;;1.60;99.90;;;;;;5032528;28;19988;-92
2023/12/19 10:25:53;;;;;;;;;;;1.60;99.90;;;;;;5035983;28;20006;-92
2023/12/19 10:28:18;;;;;;;;;;;1.60;99.90;;;;;;5036385;28;19912;-91
2023/12/19 10:30:44;;;;;;;;;;;1.70;99.90;;;;;;5032778;28;20449;-90
2023/12/19 10:33:09;;;;;;;;;;;1.80;99.90;;;;;;5036176;28;19939;-92
2023/12/19 10:35:37;;;;;;;;;;;1.90;99.90;;;;;;5036239;28;19976;-92
2023/12/19 10:38:03;;;;;;;;;;;1.70;99.90;;;;;;5030853;28;19908;-93
2023/12/19 10:40:29;;;;;;;;;;;1.90;99.90;;;;;;5035757;28;20000;-91
2023/12/19 10:42:55;;;;;;;;;;;2.10;99.90;;;;;;5036048;28;20364;-92
2023/12/19 10:45:21;;;;;;;;;;;2.30;99.90;;;;;;5031537;28;19905;-93
2023/12/19 10:47:47;;;;;;;;;;;2.40;99.90;;;;;;5036411;28;19934;-92
2023/12/19 10:50:12;;;;;;;;;;;2.40;99.90;;;;;;5034466;28;20442;-90
2023/12/19 10:52:40;;;;;;;;;;;2.30;99.90;;;;;;5033465;28;19932;-91
2023/12/19 10:55:08;;;;;;;;;;;2.40;99.90;;;;;;5033387;28;19908;-91
2023/12/19 10:57:36;;;;;;;;;;;2.40;99.90;;;;;;5033229;28;19919;-90
2023/12/19 11:00:11;;;;;;;;;;;2.40;99.90;;;;;;5031548;28;20361;-90
2023/12/19 11:02:37;;;;;;;;;;;2.50;99.90;;;;;;5032940;28;19915;-92
2023/12/19 11:05:21;;;;;;;;;;;2.30;99.90;;;;;;5068239;28;19940;-92
2023/12/19 11:07:49;;;;;;;;;;;2.20;99.90;;;;;;5034558;28;20022;-92
2023/12/19 11:10:18;;;;;;;;;;;2.20;99.90;;;;;;5033543;28;19904;-90
2023/12/19 11:12:44;;;;;;;;;;;2.10;99.90;;;;;;5033139;28;20407;-91
2023/12/19 11:15:09;;;;;;;;;;;2.10;99.90;;;;;;5033340;28;19952;-90
2023/12/19 11:18:14;;;;;;;;;;;2.00;99.90;;;;;;5034736;28;19927;-90
2023/12/19 11:20:41;;;;;;;;;;;2.00;99.90;;;;;;4956606;28;19992;-91
2023/12/19 11:23:13;;;;;;;;;;;2.30;99.90;;;;;;4956411;28;19910;-91
2023/12/19 11:25:41;;;;;;;;;;;2.10;99.90;;;;;;5013780;28;20360;-90
2023/12/19 11:28:06;;;;;;;;;;;1.70;99.90;;;;;;5034385;28;20435;-92
2023/12/19 11:30:35;;;;;;;;;;;1.80;99.90;;;;;;5033669;28;19912;-89
2023/12/19 11:33:00;;;;;;;;;;;1.90;99.90;;;;;;5033574;28;19988;-90
2023/12/19 11:35:27;;;;;;;;;;;1.70;99.90;;;;;;5034142;28;19952;-91
2023/12/19 11:38:12;;;;;;;;;;;1.70;99.90;;;;;;5034194;28;19908;-90
2023/12/19 11:40:44;;;;;;;;;;;1.80;99.90;;;;;;5030983;28;19909;-93
2023/12/19 11:43:10;;;;;;;;;;;2.30;99.90;;;;;;5034322;28;19927;-91
2023/12/19 11:45:36;;;;;;;;;;;1.90;99.90;;;;;;5052439;28;20395;-91
2023/12/19 11:48:02;;;;;;;;;;;2.00;99.90;;;;;;5034002;28;19913;-90
2023/12/19 11:50:40;;;;;;;;;;;2.10;99.90;;;;;;5051823;28;19908;-93
2023/12/19 11:53:06;;;;;;;;;;;2.00;99.90;;;;;;5065925;28;19977;-92
2023/12/19 11:55:31;;;;;;;;;;;2.00;99.90;;;;;;5032923;28;19908;-91
2023/12/19 11:58:07;;;;;;;;;;;2.00;99.90;;;;;;5033203;28;19905;-91
2023/12/19 12:00:33;;;;;;;;;;;1.90;99.90;;;;;;5035154;28;19905;-90
2023/12/19 12:03:05;;;;;;;;;;;1.90;99.90;;;;;;5032090;28;19919;-90
2023/12/19 12:05:30;;;;;;;;;;;2.20;99.90;;;;;;5032359;28;19966;-92
2023/12/19 12:07:56;;;;;;;;;;;2.20;99.90;;;;;;5034592;28;19963;-92
2023/12/19 12:10:22;;;;;;;;;;;2.30;99.90;;;;;;5035580;28;19908;-92
2023/12/19 12:12:48;;;;;;;;;;;2.00;99.90;;;;;;5035814;28;19905;-90
2023/12/19 12:15:16;;;;;;;;;;;2.10;99.90;;;;;;5031582;28;19916;-89
2023/12/19 12:17:43;;;;;;;;;;;2.30;99.90;;;;;;5033701;28;19909;-93
2023/12/19 12:20:09;;;;;;;;;;;2.30;99.90;;;;;;5033383;28;19908;-90
2023/12/19 12:22:35;;;;;;;;;;;2.30;99.90;;;;;;5034954;28;19911;-91
2023/12/19 12:25:01;;;;;;;;;;;2.40;99.90;;;;;;5034671;28;19905;-90
2023/12/19 12:27:30;;;;;;;;;;;2.40;99.90;;;;;;5033883;28;19909;-88
2023/12/19 12:29:56;;;;;;;;;;;2.30;99.90;;;;;;5027236;28;19904;-90
2023/12/19 12:32:25;;;;;;;;;;;2.50;99.90;;;;;;5033345;28;20376;-89
2023/12/19 12:34:50;;;;;;;;;;;2.60;99.90;;;;;;5027665;28;19955;-92
2023/12/19 12:37:19;;;;;;;;;;;2.60;99.90;;;;;;5033026;28;19909;-90
2023/12/19 12:39:45;;;;;;;;;;;2.50;99.90;;;;;;5032950;28;19947;-90
2023/12/19 12:42:13;;;;;;;;;;;2.50;99.90;;;;;;5033364;28;19962;-90
2023/12/19 12:44:39;;;;;;;;;;;2.40;99.90;;;;;;5034763;28;19908;-91
2023/12/19 12:47:08;;;;;;;;;;;2.40;99.90;;;;;;5037573;28;20359;-92
2023/12/19 12:49:35;;;;;;;;;;;2.50;99.90;;;;;;5037327;28;20006;-90
2023/12/19 12:52:01;;;;;;;;;;;2.40;99.90;;;;;;5036703;28;19904;-90
2023/12/19 12:54:28;;;;;;;;;;;2.50;99.90;;;;;;5042003;28;19909;-89
2023/12/19 12:56:54;;;;;;;;;;;2.40;99.90;;;;;;5040195;28;19940;-90
2023/12/19 12:59:25;;;;;;;;;;;2.50;99.90;;;;;;5037019;28;20417;-92
2023/12/19 13:01:50;;;;;;;;;;;2.40;99.90;;;;;;5035667;28;19916;-90
2023/12/19 13:04:17;;;;;;;;;;;2.20;99.90;;;;;;5036229;28;19909;-93
2023/12/19 13:06:46;;;;;;;;;;;2.30;99.90;;;;;;5036795;28;19986;-89
2023/12/19 13:09:19;;;;;;;;;;;2.20;99.90;;;;;;5036420;28;19956;-90
2023/12/19 13:11:47;;;;;;;;;;;2.30;99.90;;;;;;5039345;28;19909;-93
2023/12/19 13:14:13;;;;;;;;;;;2.10;99.90;;;;;;5036738;28;19908;-91
2023/12/19 13:16:38;;;;;;;;;;;2.10;99.90;;;;;;5036266;28;19909;-92
2023/12/19 13:19:04;;;;;;;;;;;2.10;99.90;;;;;;5038310;28;19912;-92
2023/12/19 13:21:29;;;;;;;;;;;2.10;99.90;;;;;;5035961;28;19915;-89
2023/12/19 13:23:56;;;;;;;;;;;2.30;99.90;;;;;;5033213;28;19954;-92
2023/12/19 13:26:25;;;;;;;;;;;2.50;99.90;;;;;;5036198;28;19959;-93
2023/12/19 13:28:51;;;;;;;;;;;2.50;99.90;;;;;;5035847;28;19917;-90
2023/12/19 13:31:16;;;;;;;;;;;2.40;99.90;;;;;;5035645;28;19936;-91
2023/12/19 13:33:42;;;;;;;;;;;2.30;99.90;;;;;;5036057;28;19909;-92
2023/12/19 13:36:09;;;;;;;;;;;2.40;99.90;;;;;;5036420;28;19908;-90
2023/12/19 13:38:34;;;;;;;;;;;2.20;99.90;;;;;;5037115;28;20398;-91
2023/12/19 13:41:00;;;;;;;;;;;2.00;99.90;;;;;;5036963;28;19908;-90
2023/12/19 13:43:26;;;;;;;;;;;2.20;99.90;;;;;;5037117;28;19909;-90
2023/12/19 13:45:51;;;;;;;;;;;2.20;99.90;;;;;;5035517;28;19996;-89
2023/12/19 13:48:17;;;;;;;;;;;2.30;99.90;;;;;;5034325;28;19912;-90
2023/12/19 13:50:43;;;;;;;;;;;2.00;99.90;;;;;;5035920;28;19909;-92
2023/12/19 13:53:09;;;;;;;;;;;1.90;99.90;;;;;;5043756;28;20436;-91
2023/12/19 13:55:34;;;;;;;;;;;1.90;99.90;;;;;;5038189;28;20002;-90
2023/12/19 13:58:01;;;;;;;;;;;1.90;99.90;;;;;;5035425;28;19908;-93
2023/12/19 14:00:26;;;;;;;;;;;1.90;99.90;;;;;;5035045;28;19909;-89
2023/12/19 14:02:52;;;;;;;;;;;2.00;99.90;;;;;;5035591;28;19915;-92
2023/12/19 14:05:17;;;;;;;;;;;2.10;99.90;;;;;;5039352;28;19905;-89
2023/12/19 14:07:43;;;;;;;;;;;2.10;99.90;;;;;;5034002;28;19912;-91
2023/12/19 14:10:09;;;;;;;;;;;2.30;99.90;;;;;;5035183;28;19909;-91
2023/12/19 14:12:35;;;;;;;;;;;2.50;99.90;;;;;;5029625;28;19908;-92
2023/12/19 14:15:03;;;;;;;;;;;2.40;99.90;;;;;;5032637;28;19912;-89
2023/12/19 14:17:29;;;;;;;;;;;2.30;99.90;;;;;;5032564;28;20023;-88
2023/12/19 14:19:55;;;;;;;;;;;2.40;99.90;;;;;;5034758;28;20019;-90
2023/12/19 14:22:20;;;;;;;;;;;2.50;99.90;;;;;;5033124;28;20357;-88
2023/12/19 14:24:47;;;;;;;;;;;2.50;99.90;;;;;;5032155;28;19913;-89
2023/12/19 14:27:13;;;;;;;;;;;2.50;99.90;;;;;;5049495;28;19915;-89